sensor_id;sensor_type;location;lat;lon;timestamp;pressure;altitude;pressure_sealevel;temperature;humidity
22214;BME280;11276;43.566;27.824;2022-08-16T00:00:13;98252.53;;;20.46;100.00
22214;BME280;11276;43.566;27.824;2022-08-16T00:02:40;98255.19;;;20.52;100.00
22214;BME280;11276;43.566;27.824;2022-08-16T00:05:09;98250.44;;;20.48;100.00
22214;BME280;11276;43.566;27.824;2022-08-16T00:07:37;98240.19;;;20.51;100.00
22214;BME280;11276;43.566;27.824;2022-08-16T00:10:07;98224.53;;;20.42;100.00
22214;BME280;11276;43.566;27.824;2022-08-16T00:12:34;98248.41;;;20.50;100.00
22214;BME280;11276;43.566;27.824;2022-08-16T00:15:11;98240.16;;;20.45;100.00
22214;BME280;11276;43.566;27.824;2022-08-16T00:17:39;98239.34;;;20.44;100.00
22214;BME280;11276;43.566;27.824;2022-08-16T00:20:07;98251.88;;;20.44;100.00
22214;BME280;11276;43.566;27.824;2022-08-16T00:22:36;98255.59;;;20.36;100.00
22214;BME280;11276;43.566;27.824;2022-08-16T00:25:06;98245.09;;;20.35;100.00
22214;BME280;11276;43.566;27.824;2022-08-16T00:27:34;98250.88;;;20.32;100.00
22214;BME280;11276;43.566;27.824;2022-08-16T00:30:01;98236.00;;;20.23;100.00
22214;BME280;11276;43.566;27.824;2022-08-16T00:32:28;98257.66;;;20.41;100.00
22214;BME280;11276;43.566;27.824;2022-08-16T00:34:54;98259.09;;;20.37;100.00
22214;BME280;11276;43.566;27.824;2022-08-16T00:37:23;98243.00;;;20.24;100.00
22214;BME280;11276;43.566;27.824;2022-08-16T00:39:52;98250.00;;;20.25;100.00
22214;BME280;11276;43.566;27.824;2022-08-16T00:42:20;98262.38;;;20.32;100.00
22214;BME280;11276;43.566;27.824;2022-08-16T00:44:53;98269.75;;;20.30;100.00
22214;BME280;11276;43.566;27.824;2022-08-16T00:47:23;98267.28;;;20.22;100.00
22214;BME280;11276;43.566;27.824;2022-08-16T00:49:52;98275.69;;;20.26;100.00
22214;BME280;11276;43.566;27.824;2022-08-16T00:52:19;98276.72;;;20.25;100.00
22214;BME280;11276;43.566;27.824;2022-08-16T00:54:46;98262.72;;;20.23;100.00
22214;BME280;11276;43.566;27.824;2022-08-16T00:57:13;98270.97;;;20.28;100.00
22214;BME280;11276;43.566;27.824;2022-08-16T00:59:40;98274.69;;;20.27;100.00
22214;BME280;11276;43.566;27.824;2022-08-16T01:02:08;98289.06;;;20.26;100.00
22214;BME280;11276;43.566;27.824;2022-08-16T01:04:36;98282.06;;;20.25;100.00
22214;BME280;11276;43.566;27.824;2022-08-16T01:07:05;98276.50;;;20.19;100.00
22214;BME280;11276;43.566;27.824;2022-08-16T01:09:35;98272.97;;;20.12;100.00
22214;BME280;11276;43.566;27.824;2022-08-16T01:12:06;98289.69;;;20.28;100.00
22214;BME280;11276;43.566;27.824;2022-08-16T01:14:44;98281.66;;;20.28;100.00
22214;BME280;11276;43.566;27.824;2022-08-16T01:17:14;98284.56;;;20.33;100.00
22214;BME280;11276;43.566;27.824;2022-08-16T01:19:50;98282.53;;;20.35;100.00
22214;BME280;11276;43.566;27.824;2022-08-16T01:22:26;98277.59;;;20.32;100.00
22214;BME280;11276;43.566;27.824;2022-08-16T01:25:22;98271.59;;;20.30;100.00
22214;BME280;11276;43.566;27.824;2022-08-16T01:27:53;98267.75;;;20.32;100.00
22214;BME280;11276;43.566;27.824;2022-08-16T01:30:23;98271.84;;;20.35;100.00
22214;BME280;11276;43.566;27.824;2022-08-16T01:32:54;98251.25;;;20.22;100.00
22214;BME280;11276;43.566;27.824;2022-08-16T01:35:27;98267.50;;;20.34;100.00
22214;BME280;11276;43.566;27.824;2022-08-16T01:37:56;98251.81;;;20.17;100.00
22214;BME280;11276;43.566;27.824;2022-08-16T01:40:27;98258.00;;;20.18;100.00
22214;BME280;11276;43.566;27.824;2022-08-16T01:42:54;98250.56;;;20.13;100.00
22214;BME280;11276;43.566;27.824;2022-08-16T01:45:22;98271.38;;;20.25;100.00
22214;BME280;11276;43.566;27.824;2022-08-16T01:47:50;98270.56;;;20.24;100.00
22214;BME280;11276;43.566;27.824;2022-08-16T01:50:19;98265.63;;;20.28;100.00
22214;BME280;11276;43.566;27.824;2022-08-16T01:52:46;98268.53;;;20.33;100.00
22214;BME280;11276;43.566;27.824;2022-08-16T01:55:16;98247.09;;;20.19;100.00
22214;BME280;11276;43.566;27.824;2022-08-16T01:57:43;98244.22;;;20.28;100.00
22214;BME280;11276;43.566;27.824;2022-08-16T02:00:10;98261.34;;;20.40;100.00
22214;BME280;11276;43.566;27.824;2022-08-16T02:02:37;98244.69;;;20.38;100.00
22214;BME280;11276;43.566;27.824;2022-08-16T02:05:04;98250.88;;;20.45;100.00
22214;BME280;11276;43.566;27.824;2022-08-16T02:07:31;98256.41;;;20.43;100.00
22214;BME280;11276;43.566;27.824;2022-08-16T02:09:58;98251.28;;;20.42;100.00
22214;BME280;11276;43.566;27.824;2022-08-16T02:12:27;98245.94;;;20.42;100.00
22214;BME280;11276;43.566;27.824;2022-08-16T02:14:55;98222.25;;;20.39;100.00
22214;BME280;11276;43.566;27.824;2022-08-16T02:17:22;98245.09;;;20.48;100.00
22214;BME280;11276;43.566;27.824;2022-08-16T02:19:49;98246.75;;;20.49;100.00
22214;BME280;11276;43.566;27.824;2022-08-16T02:22:20;98224.94;;;20.39;100.00
22214;BME280;11276;43.566;27.824;2022-08-16T02:24:48;98220.00;;;20.36;100.00
22214;BME280;11276;43.566;27.824;2022-08-16T02:27:15;98214.03;;;20.34;100.00
22214;BME280;11276;43.566;27.824;2022-08-16T02:29:42;98227.22;;;20.42;100.00
22214;BME280;11276;43.566;27.824;2022-08-16T02:32:11;98239.13;;;20.39;100.00
22214;BME280;11276;43.566;27.824;2022-08-16T02:34:38;98216.28;;;20.30;100.00
22214;BME280;11276;43.566;27.824;2022-08-16T02:37:05;98232.09;;;20.25;100.00
22214;BME280;11276;43.566;27.824;2022-08-16T02:39:32;98241.34;;;20.23;100.00
22214;BME280;11276;43.566;27.824;2022-08-16T02:41:59;98232.28;;;20.10;100.00
22214;BME280;11276;43.566;27.824;2022-08-16T02:44:25;98232.72;;;20.07;100.00
22214;BME280;11276;43.566;27.824;2022-08-16T02:46:52;98233.09;;;20.04;100.00
22214;BME280;11276;43.566;27.824;2022-08-16T02:49:19;98231.84;;;20.00;100.00
22214;BME280;11276;43.566;27.824;2022-08-16T02:51:46;98240.88;;;19.99;100.00
22214;BME280;11276;43.566;27.824;2022-08-16T02:54:13;98250.56;;;20.13;100.00
22214;BME280;11276;43.566;27.824;2022-08-16T02:56:41;98235.16;;;20.09;100.00
22214;BME280;11276;43.566;27.824;2022-08-16T02:59:08;98227.75;;;20.04;100.00
22214;BME280;11276;43.566;27.824;2022-08-16T03:01:37;98219.13;;;20.02;100.00
22214;BME280;11276;43.566;27.824;2022-08-16T03:04:05;98240.09;;;20.18;100.00
22214;BME280;11276;43.566;27.824;2022-08-16T03:06:32;98253.50;;;20.25;100.00
22214;BME280;11276;43.566;27.824;2022-08-16T03:08:59;98247.94;;;20.27;100.00
22214;BME280;11276;43.566;27.824;2022-08-16T03:11:25;98226.13;;;20.16;100.00
22214;BME280;11276;43.566;27.824;2022-08-16T03:13:54;98224.28;;;20.17;100.00
22214;BME280;11276;43.566;27.824;2022-08-16T03:16:21;98225.72;;;20.19;100.00
22214;BME280;11276;43.566;27.824;2022-08-16T03:18:48;98246.75;;;20.36;100.00
22214;BME280;11276;43.566;27.824;2022-08-16T03:21:16;98257.66;;;20.41;100.00
22214;BME280;11276;43.566;27.824;2022-08-16T03:23:43;98242.00;;;20.38;100.00
22214;BME280;11276;43.566;27.824;2022-08-16T03:26:10;98228.81;;;20.30;100.00
22214;BME280;11276;43.566;27.824;2022-08-16T03:28:36;98250.66;;;20.46;100.00
22214;BME280;11276;43.566;27.824;2022-08-16T03:31:04;98239.34;;;20.38;100.00
22214;BME280;11276;43.566;27.824;2022-08-16T03:33:32;98230.66;;;20.29;100.00
22214;BME280;11276;43.566;27.824;2022-08-16T03:36:00;98238.94;;;20.41;100.00
22214;BME280;11276;43.566;27.824;2022-08-16T03:38:28;98226.38;;;20.48;100.00
22214;BME280;11276;43.566;27.824;2022-08-16T03:40:56;98252.50;;;20.59;100.00
22214;BME280;11276;43.566;27.824;2022-08-16T03:43:25;98249.63;;;20.54;100.00
22214;BME280;11276;43.566;27.824;2022-08-16T03:45:53;98260.34;;;20.60;100.00
22214;BME280;11276;43.566;27.824;2022-08-16T03:48:30;98260.75;;;20.64;100.00
22214;BME280;11276;43.566;27.824;2022-08-16T03:50:59;98263.63;;;20.69;100.00
22214;BME280;11276;43.566;27.824;2022-08-16T03:53:28;98258.06;;;20.64;100.00
22214;BME280;11276;43.566;27.824;2022-08-16T03:55:55;98260.34;;;20.67;100.00
22214;BME280;11276;43.566;27.824;2022-08-16T03:58:22;98244.31;;;20.67;100.00
22214;BME280;11276;43.566;27.824;2022-08-16T04:00:49;98273.09;;;20.78;100.00
22214;BME280;11276;43.566;27.824;2022-08-16T04:03:16;98245.53;;;20.71;100.00
22214;BME280;11276;43.566;27.824;2022-08-16T04:05:45;98264.44;;;20.83;100.00
22214;BME280;11276;43.566;27.824;2022-08-16T04:08:13;98277.63;;;20.84;100.00
22214;BME280;11276;43.566;27.824;2022-08-16T04:10:40;98261.16;;;20.74;100.00
22214;BME280;11276;43.566;27.824;2022-08-16T04:13:07;98275.16;;;20.89;100.00
22214;BME280;11276;43.566;27.824;2022-08-16T04:15:34;98281.75;;;20.87;100.00
22214;BME280;11276;43.566;27.824;2022-08-16T04:18:00;98281.72;;;21.00;100.00
22214;BME280;11276;43.566;27.824;2022-08-16T04:20:27;98258.28;;;20.95;100.00
22214;BME280;11276;43.566;27.824;2022-08-16T04:22:55;98263.19;;;21.05;100.00
22214;BME280;11276;43.566;27.824;2022-08-16T04:25:22;98265.25;;;21.10;100.00
22214;BME280;11276;43.566;27.824;2022-08-16T04:27:50;98278.41;;;21.31;100.00
22214;BME280;11276;43.566;27.824;2022-08-16T04:30:18;98265.44;;;21.34;100.00
22214;BME280;11276;43.566;27.824;2022-08-16T04:32:47;98283.28;;;21.47;100.00
22214;BME280;11276;43.566;27.824;2022-08-16T04:35:16;98280.22;;;21.50;100.00
22214;BME280;11276;43.566;27.824;2022-08-16T04:37:44;98281.19;;;21.69;100.00
22214;BME280;11276;43.566;27.824;2022-08-16T04:40:13;98282.56;;;21.78;100.00
22214;BME280;11276;43.566;27.824;2022-08-16T04:42:40;98290.59;;;21.84;100.00
22214;BME280;11276;43.566;27.824;2022-08-16T04:45:10;98282.75;;;21.96;100.00
22214;BME280;11276;43.566;27.824;2022-08-16T04:47:40;98268.28;;;21.97;100.00
22214;BME280;11276;43.566;27.824;2022-08-16T04:50:10;98283.03;;;22.19;100.00
22214;BME280;11276;43.566;27.824;2022-08-16T04:52:38;98256.38;;;22.24;100.00
22214;BME280;11276;43.566;27.824;2022-08-16T04:55:10;98276.22;;;22.48;100.00
22214;BME280;11276;43.566;27.824;2022-08-16T04:57:39;98272.50;;;22.49;100.00
22214;BME280;11276;43.566;27.824;2022-08-16T05:00:09;98274.72;;;22.59;100.00
22214;BME280;11276;43.566;27.824;2022-08-16T05:02:38;98251.16;;;22.61;100.00
22214;BME280;11276;43.566;27.824;2022-08-16T05:05:06;98264.16;;;22.89;100.00
22214;BME280;11276;43.566;27.824;2022-08-16T05:07:33;98267.53;;;23.02;100.00
22214;BME280;11276;43.566;27.824;2022-08-16T05:10:00;98273.19;;;23.19;100.00
22214;BME280;11276;43.566;27.824;2022-08-16T05:12:27;98273.19;;;23.19;100.00
22214;BME280;11276;43.566;27.824;2022-08-16T05:14:54;98281.41;;;23.42;100.00
22214;BME280;11276;43.566;27.824;2022-08-16T05:17:21;98266.63;;;23.51;100.00
22214;BME280;11276;43.566;27.824;2022-08-16T05:19:48;98290.38;;;23.73;100.00
22214;BME280;11276;43.566;27.824;2022-08-16T05:22:15;98281.44;;;23.79;100.00
22214;BME280;11276;43.566;27.824;2022-08-16T05:24:42;98276.19;;;23.84;100.00
22214;BME280;11276;43.566;27.824;2022-08-16T05:27:09;98293.03;;;24.09;100.00
22214;BME280;11276;43.566;27.824;2022-08-16T05:29:37;98296.59;;;24.21;100.00
22214;BME280;11276;43.566;27.824;2022-08-16T05:32:04;98285.06;;;24.32;100.00
22214;BME280;11276;43.566;27.824;2022-08-16T05:34:31;98294.38;;;24.48;100.00
22214;BME280;11276;43.566;27.824;2022-08-16T05:36:57;98281.25;;;24.52;100.00
22214;BME280;11276;43.566;27.824;2022-08-16T05:39:25;98287.59;;;24.57;100.00
22214;BME280;11276;43.566;27.824;2022-08-16T05:41:52;98285.38;;;24.66;100.00
22214;BME280;11276;43.566;27.824;2022-08-16T05:44:21;98291.03;;;24.76;100.00
22214;BME280;11276;43.566;27.824;2022-08-16T05:46:55;98288.09;;;24.77;100.00
22214;BME280;11276;43.566;27.824;2022-08-16T05:49:25;98294.03;;;24.98;100.00
22214;BME280;11276;43.566;27.824;2022-08-16T05:51:52;98300.22;;;25.21;99.44
22214;BME280;11276;43.566;27.824;2022-08-16T05:54:21;98295.44;;;25.35;100.00
22214;BME280;11276;43.566;27.824;2022-08-16T05:56:48;98301.50;;;25.65;98.88
22214;BME280;11276;43.566;27.824;2022-08-16T05:59:17;98292.56;;;25.77;97.04
22214;BME280;11276;43.566;27.824;2022-08-16T06:01:44;98286.69;;;26.20;92.96
22214;BME280;11276;43.566;27.824;2022-08-16T06:04:12;98301.06;;;27.15;88.38
22214;BME280;11276;43.566;27.824;2022-08-16T06:06:41;98308.81;;;28.27;83.07
22214;BME280;11276;43.566;27.824;2022-08-16T06:09:10;98290.03;;;29.90;76.65
22214;BME280;11276;43.566;27.824;2022-08-16T06:11:37;98312.53;;;32.28;66.38
22214;BME280;11276;43.566;27.824;2022-08-16T06:14:04;98300.59;;;32.63;62.55
22214;BME280;11276;43.566;27.824;2022-08-16T06:16:31;98312.78;;;32.37;63.11
22214;BME280;11276;43.566;27.824;2022-08-16T06:18:58;98307.16;;;32.18;62.79
22214;BME280;11276;43.566;27.824;2022-08-16T06:21:25;98301.97;;;32.71;61.19
22214;BME280;11276;43.566;27.824;2022-08-16T06:23:52;98303.56;;;33.63;58.03
22214;BME280;11276;43.566;27.824;2022-08-16T06:26:20;98282.94;;;34.61;55.02
22214;BME280;11276;43.566;27.824;2022-08-16T06:28:47;98287.50;;;34.66;53.67
22214;BME280;11276;43.566;27.824;2022-08-16T06:31:14;98278.78;;;34.64;54.72
22214;BME280;11276;43.566;27.824;2022-08-16T06:33:42;98289.94;;;35.92;50.91
22214;BME280;11276;43.566;27.824;2022-08-16T06:36:10;98295.94;;;37.01;45.52
22214;BME280;11276;43.566;27.824;2022-08-16T06:38:37;98303.97;;;37.42;45.25
22214;BME280;11276;43.566;27.824;2022-08-16T06:41:06;98313.59;;;38.75;41.62
22214;BME280;11276;43.566;27.824;2022-08-16T06:43:34;98305.69;;;39.64;38.05
22214;BME280;11276;43.566;27.824;2022-08-16T06:46:04;98291.50;;;39.82;36.81
22214;BME280;11276;43.566;27.824;2022-08-16T06:48:33;98298.06;;;40.49;35.13
22214;BME280;11276;43.566;27.824;2022-08-16T06:51:03;98285.13;;;40.40;34.19
22214;BME280;11276;43.566;27.824;2022-08-16T06:53:31;98294.34;;;41.40;33.58
22214;BME280;11276;43.566;27.824;2022-08-16T06:56:00;98278.03;;;41.26;33.72
22214;BME280;11276;43.566;27.824;2022-08-16T06:58:32;98273.56;;;41.34;33.01
22214;BME280;11276;43.566;27.824;2022-08-16T07:01:03;98276.75;;;41.11;33.28
22214;BME280;11276;43.566;27.824;2022-08-16T07:03:30;98293.91;;;42.10;31.54
22214;BME280;11276;43.566;27.824;2022-08-16T07:05:57;98297.47;;;42.35;30.49
22214;BME280;11276;43.566;27.824;2022-08-16T07:08:25;98276.06;;;42.72;29.91
22214;BME280;11276;43.566;27.824;2022-08-16T07:10:52;98278.47;;;41.61;31.46
22214;BME280;11276;43.566;27.824;2022-08-16T07:13:19;98288.88;;;40.15;33.76
22214;BME280;11276;43.566;27.824;2022-08-16T07:16:08;98278.63;;;40.45;34.02
22214;BME280;11276;43.566;27.824;2022-08-16T07:18:40;98300.13;;;41.47;32.54
22214;BME280;11276;43.566;27.824;2022-08-16T07:21:13;98298.94;;;40.40;34.35
22214;BME280;11276;43.566;27.824;2022-08-16T07:23:41;98292.81;;;40.76;33.68
22214;BME280;11276;43.566;27.824;2022-08-16T07:26:19;98298.75;;;41.20;32.57
22214;BME280;11276;43.566;27.824;2022-08-16T07:28:46;98308.19;;;41.52;32.25
22214;BME280;11276;43.566;27.824;2022-08-16T07:31:15;98304.53;;;40.94;33.34
22214;BME280;11276;43.566;27.824;2022-08-16T07:33:42;98301.63;;;40.91;33.17
22214;BME280;11276;43.566;27.824;2022-08-16T07:36:11;98291.50;;;42.33;30.71
22214;BME280;11276;43.566;27.824;2022-08-16T07:38:40;98297.97;;;41.32;32.96
22214;BME280;11276;43.566;27.824;2022-08-16T07:41:07;98279.19;;;40.51;33.18
22214;BME280;11276;43.566;27.824;2022-08-16T07:43:34;98282.81;;;41.50;32.80
22214;BME280;11276;43.566;27.824;2022-08-16T07:46:01;98290.63;;;41.36;32.57
22214;BME280;11276;43.566;27.824;2022-08-16T07:48:28;98280.47;;;41.28;31.88
22214;BME280;11276;43.566;27.824;2022-08-16T07:50:55;98275.72;;;41.73;31.10
22214;BME280;11276;43.566;27.824;2022-08-16T07:53:24;98268.66;;;41.06;32.64
22214;BME280;11276;43.566;27.824;2022-08-16T07:55:51;98270.22;;;41.40;31.87
22214;BME280;11276;43.566;27.824;2022-08-16T07:58:18;98266.66;;;42.25;31.27
22214;BME280;11276;43.566;27.824;2022-08-16T08:00:46;98262.91;;;42.69;30.53
22214;BME280;11276;43.566;27.824;2022-08-16T08:03:13;98275.50;;;43.38;28.97
22214;BME280;11276;43.566;27.824;2022-08-16T08:05:39;98274.91;;;42.61;29.47
22214;BME280;11276;43.566;27.824;2022-08-16T08:08:06;98281.31;;;42.25;30.29
22214;BME280;11276;43.566;27.824;2022-08-16T08:10:33;98280.75;;;43.00;29.20
22214;BME280;11276;43.566;27.824;2022-08-16T08:13:00;98279.06;;;42.27;30.88
22214;BME280;11276;43.566;27.824;2022-08-16T08:15:27;98278.47;;;42.34;30.06
22214;BME280;11276;43.566;27.824;2022-08-16T08:17:58;98278.28;;;41.00;31.65
22214;BME280;11276;43.566;27.824;2022-08-16T08:20:27;98286.91;;;40.66;32.72
22214;BME280;11276;43.566;27.824;2022-08-16T08:22:56;98284.09;;;42.25;29.63
22214;BME280;11276;43.566;27.824;2022-08-16T08:25:24;98273.63;;;42.06;30.00
22214;BME280;11276;43.566;27.824;2022-08-16T08:27:51;98284.63;;;43.39;28.41
22214;BME280;11276;43.566;27.824;2022-08-16T08:30:18;98287.75;;;43.84;27.09
22214;BME280;11276;43.566;27.824;2022-08-16T08:32:45;98284.13;;;44.15;26.37
22214;BME280;11276;43.566;27.824;2022-08-16T08:35:12;98277.34;;;44.86;25.43
22214;BME280;11276;43.566;27.824;2022-08-16T08:37:39;98289.28;;;43.50;28.17
22214;BME280;11276;43.566;27.824;2022-08-16T08:40:08;98283.50;;;44.76;24.99
22214;BME280;11276;43.566;27.824;2022-08-16T08:42:36;98282.22;;;44.19;26.15
22214;BME280;11276;43.566;27.824;2022-08-16T08:45:04;98284.09;;;43.96;27.02
22214;BME280;11276;43.566;27.824;2022-08-16T08:47:31;98279.97;;;43.74;27.15
22214;BME280;11276;43.566;27.824;2022-08-16T08:49:58;98264.19;;;43.31;27.51
22214;BME280;11276;43.566;27.824;2022-08-16T08:52:25;98279.78;;;43.83;27.00
22214;BME280;11276;43.566;27.824;2022-08-16T08:54:52;98264.31;;;43.07;28.02
22214;BME280;11276;43.566;27.824;2022-08-16T08:57:19;98264.97;;;42.60;27.83
22214;BME280;11276;43.566;27.824;2022-08-16T08:59:46;98268.63;;;42.76;28.21
22214;BME280;11276;43.566;27.824;2022-08-16T09:02:14;98260.97;;;42.85;25.78
22214;BME280;11276;43.566;27.824;2022-08-16T09:04:43;98260.75;;;41.86;29.11
22214;BME280;11276;43.566;27.824;2022-08-16T09:07:10;98264.06;;;41.10;29.78
22214;BME280;11276;43.566;27.824;2022-08-16T09:09:37;98243.44;;;41.77;28.64
22214;BME280;11276;43.566;27.824;2022-08-16T09:12:07;98258.31;;;41.97;28.25
22214;BME280;11276;43.566;27.824;2022-08-16T09:14:35;98269.13;;;42.14;27.20
22214;BME280;11276;43.566;27.824;2022-08-16T09:17:05;98252.16;;;40.65;30.53
22214;BME280;11276;43.566;27.824;2022-08-16T09:19:33;98250.66;;;40.26;29.56
22214;BME280;11276;43.566;27.824;2022-08-16T09:22:03;98253.22;;;40.52;29.35
22214;BME280;11276;43.566;27.824;2022-08-16T09:24:32;98252.78;;;39.70;29.17
22214;BME280;11276;43.566;27.824;2022-08-16T09:26:59;98244.91;;;39.51;30.29
22214;BME280;11276;43.566;27.824;2022-08-16T09:29:26;98230.59;;;39.20;30.63
22214;BME280;11276;43.566;27.824;2022-08-16T09:31:56;98242.31;;;38.14;34.17
22214;BME280;11276;43.566;27.824;2022-08-16T09:34:23;98246.16;;;37.17;36.13
22214;BME280;11276;43.566;27.824;2022-08-16T09:36:50;98247.31;;;36.71;35.92
22214;BME280;11276;43.566;27.824;2022-08-16T09:39:17;98224.13;;;36.05;38.90
22214;BME280;11276;43.566;27.824;2022-08-16T09:41:44;98231.13;;;35.98;40.15
22214;BME280;11276;43.566;27.824;2022-08-16T09:44:14;98234.47;;;36.08;38.11
22214;BME280;11276;43.566;27.824;2022-08-16T09:46:40;98245.91;;;36.82;35.12
22214;BME280;11276;43.566;27.824;2022-08-16T09:49:07;98228.50;;;36.87;34.85
22214;BME280;11276;43.566;27.824;2022-08-16T09:51:34;98234.69;;;36.92;35.39
22214;BME280;11276;43.566;27.824;2022-08-16T09:54:01;98231.88;;;36.84;35.69
22214;BME280;11276;43.566;27.824;2022-08-16T09:56:30;98236.44;;;36.88;35.60
22214;BME280;11276;43.566;27.824;2022-08-16T09:58:58;98226.47;;;36.70;34.02
22214;BME280;11276;43.566;27.824;2022-08-16T10:01:25;98220.34;;;36.73;35.48
22214;BME280;11276;43.566;27.824;2022-08-16T10:03:53;98220.47;;;36.68;33.86
22214;BME280;11276;43.566;27.824;2022-08-16T10:06:21;98218.72;;;36.72;33.79
22214;BME280;11276;43.566;27.824;2022-08-16T10:08:48;98214.00;;;36.86;32.71
22214;BME280;11276;43.566;27.824;2022-08-16T10:11:15;98223.34;;;36.85;33.74
22214;BME280;11276;43.566;27.824;2022-08-16T10:14:03;98225.94;;;36.46;32.24
22214;BME280;11276;43.566;27.824;2022-08-16T10:16:30;98235.69;;;36.74;33.98
22214;BME280;11276;43.566;27.824;2022-08-16T10:18:57;98215.94;;;36.63;32.55
22214;BME280;11276;43.566;27.824;2022-08-16T10:21:24;98237.09;;;36.49;34.17
22214;BME280;11276;43.566;27.824;2022-08-16T10:23:51;98231.22;;;36.20;34.76
22214;BME280;11276;43.566;27.824;2022-08-16T10:26:22;98245.63;;;36.12;33.69
22214;BME280;11276;43.566;27.824;2022-08-16T10:28:52;98240.50;;;36.33;34.19
22214;BME280;11276;43.566;27.824;2022-08-16T10:31:19;98220.13;;;36.47;34.24
22214;BME280;11276;43.566;27.824;2022-08-16T10:33:46;98218.44;;;36.15;33.38
22214;BME280;11276;43.566;27.824;2022-08-16T10:36:13;98223.03;;;35.79;34.47
22214;BME280;11276;43.566;27.824;2022-08-16T10:38:41;98227.09;;;35.95;34.68
22214;BME280;11276;43.566;27.824;2022-08-16T10:41:09;98237.44;;;35.98;35.23
22214;BME280;11276;43.566;27.824;2022-08-16T10:43:38;98211.69;;;35.86;35.09
22214;BME280;11276;43.566;27.824;2022-08-16T10:46:09;98234.91;;;35.88;35.34
22214;BME280;11276;43.566;27.824;2022-08-16T10:48:38;98222.06;;;36.24;35.93
22214;BME280;11276;43.566;27.824;2022-08-16T10:51:07;98212.84;;;36.20;35.37
22214;BME280;11276;43.566;27.824;2022-08-16T10:53:35;98235.19;;;36.50;33.82
22214;BME280;11276;43.566;27.824;2022-08-16T10:56:08;98232.31;;;36.55;33.80
22214;BME280;11276;43.566;27.824;2022-08-16T10:58:36;98229.34;;;36.65;35.18
22214;BME280;11276;43.566;27.824;2022-08-16T11:01:05;98216.91;;;36.67;33.91
22214;BME280;11276;43.566;27.824;2022-08-16T11:03:54;98230.56;;;36.59;32.74
22214;BME280;11276;43.566;27.824;2022-08-16T11:06:21;98225.56;;;36.39;32.45
22214;BME280;11276;43.566;27.824;2022-08-16T11:08:48;98223.34;;;36.41;34.36
22214;BME280;11276;43.566;27.824;2022-08-16T11:11:35;98214.00;;;36.28;33.48
22214;BME280;11276;43.566;27.824;2022-08-16T11:14:22;98204.59;;;35.71;32.34
22214;BME280;11276;43.566;27.824;2022-08-16T11:16:51;98222.53;;;35.77;35.21
22214;BME280;11276;43.566;27.824;2022-08-16T11:19:33;98208.22;;;35.39;35.90
22214;BME280;11276;43.566;27.824;2022-08-16T11:22:00;98226.31;;;35.81;34.87
22214;BME280;11276;43.566;27.824;2022-08-16T11:24:42;98199.78;;;35.90;35.49
22214;BME280;11276;43.566;27.824;2022-08-16T11:27:15;98223.19;;;36.10;36.13
22214;BME280;11276;43.566;27.824;2022-08-16T11:29:44;98222.19;;;36.19;35.07
22214;BME280;11276;43.566;27.824;2022-08-16T11:32:11;98216.69;;;36.19;33.38
22214;BME280;11276;43.566;27.824;2022-08-16T11:34:38;98232.91;;;36.30;33.57
22214;BME280;11276;43.566;27.824;2022-08-16T11:37:22;98220.38;;;36.37;34.80
22214;BME280;11276;43.566;27.824;2022-08-16T11:39:49;98220.56;;;36.18;34.79
22214;BME280;11276;43.566;27.824;2022-08-16T11:42:16;98223.44;;;35.72;34.42
22214;BME280;11276;43.566;27.824;2022-08-16T11:44:43;98212.00;;;35.57;35.37
22214;BME280;11276;43.566;27.824;2022-08-16T11:47:09;98211.34;;;35.87;33.34
22214;BME280;11276;43.566;27.824;2022-08-16T11:49:36;98220.75;;;36.08;35.09
22214;BME280;11276;43.566;27.824;2022-08-16T11:52:03;98207.44;;;35.66;34.97
22214;BME280;11276;43.566;27.824;2022-08-16T11:54:30;98216.34;;;35.85;34.04
22214;BME280;11276;43.566;27.824;2022-08-16T11:56:58;98206.19;;;35.72;33.67
22214;BME280;11276;43.566;27.824;2022-08-16T11:59:25;98213.94;;;35.70;35.06
22214;BME280;11276;43.566;27.824;2022-08-16T12:01:56;98196.06;;;35.72;33.04
22214;BME280;11276;43.566;27.824;2022-08-16T12:04:23;98204.91;;;35.69;32.54
22214;BME280;11276;43.566;27.824;2022-08-16T12:06:50;98206.41;;;35.62;36.17
22214;BME280;11276;43.566;27.824;2022-08-16T12:09:17;98202.78;;;35.66;33.71
22214;BME280;11276;43.566;27.824;2022-08-16T12:11:45;98197.47;;;35.42;35.13
22214;BME280;11276;43.566;27.824;2022-08-16T12:14:11;98208.03;;;35.35;34.11
22214;BME280;11276;43.566;27.824;2022-08-16T12:16:38;98188.50;;;34.64;36.37
22214;BME280;11276;43.566;27.824;2022-08-16T12:19:07;98199.31;;;34.55;36.63
22214;BME280;11276;43.566;27.824;2022-08-16T12:21:34;98200.03;;;34.79;35.39
22214;BME280;11276;43.566;27.824;2022-08-16T12:24:01;98199.66;;;34.99;35.10
22214;BME280;11276;43.566;27.824;2022-08-16T12:26:28;98188.88;;;34.76;35.81
22214;BME280;11276;43.566;27.824;2022-08-16T12:28:55;98186.06;;;34.62;37.72
22214;BME280;11276;43.566;27.824;2022-08-16T12:31:22;98175.06;;;34.48;37.23
22214;BME280;11276;43.566;27.824;2022-08-16T12:33:49;98202.75;;;34.47;37.87
22214;BME280;11276;43.566;27.824;2022-08-16T12:36:16;98199.31;;;34.17;36.98
22214;BME280;11276;43.566;27.824;2022-08-16T12:38:43;98180.88;;;34.09;37.85
22214;BME280;11276;43.566;27.824;2022-08-16T12:41:10;98174.50;;;34.14;38.04
22214;BME280;11276;43.566;27.824;2022-08-16T12:43:37;98168.16;;;34.19;36.25
22214;BME280;11276;43.566;27.824;2022-08-16T12:46:10;98166.25;;;34.19;35.38
22214;BME280;11276;43.566;27.824;2022-08-16T12:48:39;98174.91;;;34.26;34.54
22214;BME280;11276;43.566;27.824;2022-08-16T12:51:30;98159.22;;;34.32;32.62